Time;durP1;ratioP1;P1;durP2;ratioP2;P2;SDS_P1;SDS_P2;PMS_P1;PMS_P2;Temp;Humidity;BMP_temperature;BMP_pressure;BME280_temperature;BME280_humidity;BME280_pressure;Samples;Min_cycle;Max_cycle;Signal;HPM_P1;HPM_P2
2023/08/30 00:01:09;;;;;;;0.55;0.20;;;;;;;17.77;100.00;100776.97;10361801;28;20066;-78
2023/08/30 00:06:10;;;;;;;0.20;0.20;;;;;;;17.48;100.00;100778.88;10343518;28;20737;-77
2023/08/30 00:11:14;;;;;;;0.10;0.10;;;;;;;17.68;100.00;100768.34;10338250;28;20042;-78
2023/08/30 00:16:16;;;;;;;0.40;0.20;;;;;;;17.98;100.00;100764.72;10344661;28;20046;-78
2023/08/30 00:21:18;;;;;;;0.22;0.10;;;;;;;17.87;100.00;100751.72;10365697;28;20072;-78
2023/08/30 00:26:20;;;;;;;0.10;0.10;;;;;;;17.69;100.00;100757.06;10363972;28;20056;-79
2023/08/30 00:31:21;;;;;;;1.13;0.28;;;;;;;17.76;100.00;100753.53;10365301;28;20046;-78
2023/08/30 00:36:23;;;;;;;0.00;0.00;;;;;;;17.45;100.00;100756.31;10335964;28;20116;-78
2023/08/30 00:41:26;;;;;;;0.10;0.10;;;;;;;17.73;100.00;100744.00;10357608;28;20050;-78
2023/08/30 00:46:28;;;;;;;0.25;0.05;;;;;;;17.12;100.00;100764.25;10359636;28;20050;-78
2023/08/30 00:51:30;;;;;;;0.10;0.10;;;;;;;17.76;100.00;100749.19;10348179;28;20528;-78
2023/08/30 00:56:32;;;;;;;0.43;0.28;;;;;;;17.60;100.00;100757.97;10342608;28;20046;-79
2023/08/30 01:01:34;;;;;;;0.00;0.00;;;;;;;17.57;100.00;100755.38;10351480;28;20042;-78
2023/08/30 01:06:36;;;;;;;1.75;0.30;;;;;;;17.70;100.00;100749.22;10366401;28;20493;-77
2023/08/30 01:12:04;;;;;;;0.20;0.10;;;;;;;17.81;100.00;100745.69;10368452;28;20034;-78
2023/08/30 01:17:11;;;;;;;0.03;0.03;;;;;;;17.29;100.00;100743.34;10370748;28;20033;-78
2023/08/30 01:22:35;;;;;;;0.00;0.00;;;;;;;17.11;100.00;100749.50;10367950;28;20963;-78
2023/08/30 01:27:38;;;;;;;0.00;0.00;;;;;;;17.06;100.00;100750.38;10366109;28;20042;-78
2023/08/30 01:32:40;;;;;;;0.00;0.00;;;;;;;17.31;100.00;100745.09;10354675;28;20041;-79
2023/08/30 01:37:45;;;;;;;0.20;0.20;;;;;;;16.96;100.00;100744.34;10356606;28;20100;-79
2023/08/30 01:42:48;;;;;;;0.00;0.00;;;;;;;17.44;100.00;100732.03;10345744;28;20045;-78
2023/08/30 01:47:52;;;;;;;0.20;0.20;;;;;;;17.26;100.00;100729.50;10346187;28;20042;-79
2023/08/30 01:52:56;;;;;;;0.22;0.10;;;;;;;17.11;100.00;100720.88;10364469;28;20050;-79
2023/08/30 01:57:58;;;;;;;0.13;0.13;;;;;;;17.29;100.00;100717.31;10363439;28;20034;-79
2023/08/30 02:03:07;;;;;;;0.00;0.00;;;;;;;17.33;100.00;100719.94;10363121;28;20558;-78
2023/08/30 02:08:13;;;;;;;0.40;0.10;;;;;;;17.53;100.00;100720.69;10348423;28;20053;-78
2023/08/30 02:13:15;;;;;;;0.10;0.10;;;;;;;17.53;100.00;100718.06;10351070;28;20045;-77
2023/08/30 02:18:17;;;;;;;0.32;0.25;;;;;;;16.86;100.00;100719.22;10359800;28;20038;-78
2023/08/30 02:23:19;;;;;;;0.35;0.35;;;;;;;16.60;100.00;100709.72;10327915;28;20046;-77
2023/08/30 02:28:20;;;;;;;2.47;0.80;;;;;;;16.34;100.00;100702.84;10360206;28;20128;-79
2023/08/30 02:33:22;;;;;;;0.68;0.60;;;;;;;16.26;100.00;100696.78;10366479;28;20052;-78
2023/08/30 02:38:23;;;;;;;0.45;0.30;;;;;;;16.14;100.00;100695.91;10366999;28;20049;-78
2023/08/30 02:43:25;;;;;;;0.57;0.40;;;;;;;16.29;100.00;100695.06;10350342;28;20563;-77
2023/08/30 02:48:27;;;;;;;0.40;0.25;;;;;;;16.60;100.00;100699.31;10362606;28;20069;-78
2023/08/30 02:53:28;;;;;;;0.55;0.50;;;;;;;17.55;100.00;100697.22;10361750;28;20042;-78
2023/08/30 02:58:30;;;;;;;1.27;0.77;;;;;;;17.60;100.00;100695.47;10362287;28;20041;-78
2023/08/30 03:03:34;;;;;;;0.00;0.00;;;;;;;17.33;100.00;100692.13;10359818;28;20542;-79
2023/08/30 03:08:36;;;;;;;0.70;0.55;;;;;;;16.90;100.00;100687.09;10353579;28;20064;-77
2023/08/30 03:13:38;;;;;;;4.47;0.88;;;;;;;16.62;100.00;100687.19;10345441;28;20038;-78
2023/08/30 03:18:40;;;;;;;0.00;0.00;;;;;;;16.46;100.00;100686.34;10342764;28;20046;-78
2023/08/30 03:23:42;;;;;;;0.50;0.20;;;;;;;16.75;100.00;100678.47;10358173;28;20045;-78
2023/08/30 03:28:44;;;;;;;0.80;0.22;;;;;;;16.61;100.00;100665.50;10352693;28;20050;-79
2023/08/30 03:33:48;;;;;;;0.25;0.25;;;;;;;16.06;100.00;100663.03;10348844;28;20077;-78
2023/08/30 03:38:50;;;;;;;0.15;0.15;;;;;;;16.33;100.00;100659.53;10348140;28;20092;-78
2023/08/30 03:43:51;;;;;;;1.20;0.73;;;;;;;16.33;100.00;100649.13;10365567;28;20120;-78
2023/08/30 03:48:53;;;;;;;1.35;0.65;;;;;;;16.05;100.00;100638.75;10348419;28;20056;-78
2023/08/30 03:53:56;;;;;;;0.28;0.28;;;;;;;16.05;100.00;100632.69;10356508;28;20574;-79
2023/08/30 03:58:57;;;;;;;1.17;0.90;;;;;;;16.27;100.00;100633.53;10359584;28;20045;-79
2023/08/30 04:03:59;;;;;;;0.50;0.47;;;;;;;16.77;100.00;100629.91;10342631;28;20054;-78
2023/08/30 04:09:00;;;;;;;0.63;0.40;;;;;;;16.24;100.00;100624.00;10348725;28;20427;-77
2023/08/30 04:14:02;;;;;;;0.20;0.13;;;;;;;15.97;100.00;100611.94;10364585;28;20045;-79
2023/08/30 04:19:04;;;;;;;1.30;0.75;;;;;;;16.61;100.00;100610.03;10342789;28;20049;-77
2023/08/30 04:24:05;;;;;;;0.10;0.10;;;;;;;16.80;100.00;100598.66;10340165;28;20061;-78
2023/08/30 04:29:08;;;;;;;0.65;0.38;;;;;;;16.68;100.00;100585.72;10362904;28;20100;-78
2023/08/30 04:34:09;;;;;;;1.38;0.70;;;;;;;16.62;100.00;100593.56;10349301;28;20046;-78
2023/08/30 04:39:13;;;;;;;0.38;0.35;;;;;;;16.63;100.00;100590.09;10352646;28;20049;-78
2023/08/30 04:44:16;;;;;;;3.63;0.90;;;;;;;16.41;100.00;100579.78;10352099;28;20414;-79
2023/08/30 04:49:17;;;;;;;0.75;0.22;;;;;;;16.74;100.00;100569.25;10345614;28;20050;-79
2023/08/30 04:54:19;;;;;;;0.52;0.35;;;;;;;16.49;100.00;100566.75;10350181;28;20077;-79
2023/08/30 04:59:21;;;;;;;0.32;0.25;;;;;;;16.92;100.00;100569.16;10354451;28;20053;-78
2023/08/30 05:04:24;;;;;;;0.73;0.65;;;;;;;16.98;100.00;100575.22;10354419;28;20077;-77
2023/08/30 05:09:26;;;;;;;0.20;0.10;;;;;;;17.02;100.00;100577.78;10352407;28;20042;-78
2023/08/30 05:14:28;;;;;;;4.05;0.52;;;;;;;17.22;100.00;100569.00;10347651;28;20802;-78
2023/08/30 05:19:29;;;;;;;0.90;0.50;;;;;;;17.29;100.00;100568.06;10349244;28;20045;-78
2023/08/30 05:24:31;;;;;;;0.00;0.00;;;;;;;17.23;100.00;100573.31;10345038;28;20042;-78
2023/08/30 05:29:32;;;;;;;0.45;0.35;;;;;;;17.40;100.00;100573.19;10365053;28;20049;-78
2023/08/30 05:34:34;;;;;;;0.50;0.17;;;;;;;17.20;100.00;100571.56;10352508;28;20050;-78
2023/08/30 05:39:51;;;;;;;0.75;0.22;;;;;;;17.41;100.00;100570.56;10351449;28;20352;-77
2023/08/30 05:44:53;;;;;;;1.08;0.47;;;;;;;17.24;100.00;100562.00;10370582;28;20042;-78
2023/08/30 05:49:54;;;;;;;7.45;1.42;;;;;;;16.99;100.00;100550.91;10344921;28;20042;-78
2023/08/30 05:54:56;;;;;;;1.83;0.90;;;;;;;17.48;100.00;100541.88;10346956;28;20069;-79
2023/08/30 06:00:00;;;;;;;1.33;0.75;;;;;;;17.25;100.00;100532.50;10350594;28;20501;-78
2023/08/30 06:05:02;;;;;;;5.28;1.40;;;;;;;17.59;100.00;100537.44;10349686;28;20050;-79
2023/08/30 06:10:04;;;;;;;0.47;0.30;;;;;;;17.77;100.00;100536.41;10362248;28;20038;-78
2023/08/30 06:15:06;;;;;;;1.80;0.60;;;;;;;18.14;100.00;100529.94;10368786;28;20060;-79
2023/08/30 06:20:08;;;;;;;1.17;0.85;;;;;;;18.17;100.00;100535.16;10368843;28;20038;-78
2023/08/30 06:25:10;;;;;;;0.30;0.30;;;;;;;18.04;100.00;100530.09;10365115;28;21496;-79
2023/08/30 06:30:12;;;;;;;0.80;0.60;;;;;;;18.08;100.00;100515.28;10348435;28;20046;-79
2023/08/30 06:35:14;;;;;;;3.22;1.48;;;;;;;18.42;100.00;100514.00;10364492;28;20045;-79
2023/08/30 06:40:15;;;;;;;0.73;0.40;;;;;;;18.51;100.00;100506.91;10355378;28;20057;-78
2023/08/30 06:45:17;;;;;;;0.57;0.38;;;;;;;19.16;100.00;100502.53;10351099;28;20046;-79
2023/08/30 06:50:18;;;;;;;2.75;0.70;;;;;;;18.90;100.00;100506.34;10360412;28;20045;-79
2023/08/30 06:55:20;;;;;;;0.80;0.52;;;;;;;18.92;100.00;100509.84;10352332;28;20049;-78
2023/08/30 07:00:21;;;;;;;2.85;1.35;;;;;;;19.07;100.00;100502.66;10352331;28;20050;-78
2023/08/30 07:05:23;;;;;;;2.42;1.65;;;;;;;18.99;100.00;100508.88;10360841;28;20050;-78
2023/08/30 07:10:25;;;;;;;1.17;1.05;;;;;;;19.26;100.00;100498.84;10360360;28;20064;-78
2023/08/30 07:15:26;;;;;;;1.73;1.08;;;;;;;18.31;100.00;100493.28;10345852;28;20053;-78
2023/08/30 07:20:28;;;;;;;1.02;0.47;;;;;;;18.84;100.00;100491.63;10359532;28;20493;-77
2023/08/30 07:25:30;;;;;;;0.65;0.50;;;;;;;19.02;100.00;100489.69;10335166;28;20045;-77
2023/08/30 07:30:32;;;;;;;1.25;1.15;;;;;;;19.24;100.00;100499.78;10353645;28;20497;-79
2023/08/30 07:35:34;;;;;;;1.75;0.73;;;;;;;18.69;100.00;100492.75;10345083;28;20057;-78
2023/08/30 07:40:36;;;;;;;0.70;0.52;;;;;;;18.74;100.00;100490.06;10360160;28;20082;-78
2023/08/30 07:45:37;;;;;;;1.98;1.02;;;;;;;18.81;100.00;100485.59;10338837;28;20050;-78
2023/08/30 07:50:39;;;;;;;2.28;1.17;;;;;;;18.64;100.00;100486.75;10352348;28;20048;-79
2023/08/30 07:55:40;;;;;;;1.25;0.75;;;;;;;18.93;100.00;100488.09;10355775;28;20057;-78
2023/08/30 08:00:42;;;;;;;0.75;0.55;;;;;;;19.64;100.00;100489.50;10345782;28;20509;-78
2023/08/30 08:05:43;;;;;;;1.52;1.25;;;;;;;18.74;100.00;100494.41;10334524;28;20476;-80
2023/08/30 08:10:45;;;;;;;2.58;1.13;;;;;;;18.97;100.00;100487.13;10341708;28;20045;-78
2023/08/30 08:15:47;;;;;;;2.00;1.20;;;;;;;19.31;100.00;100491.81;10362819;28;20054;-78
2023/08/30 08:20:49;;;;;;;1.15;0.75;;;;;;;19.07;100.00;100493.06;10365528;28;20052;-79
2023/08/30 08:25:57;;;;;;;1.00;0.88;;;;;;;19.03;100.00;100471.38;10352224;28;20050;-79
2023/08/30 08:30:59;;;;;;;0.93;0.73;;;;;;;19.06;100.00;100461.78;10347935;28;20500;-79
2023/08/30 08:36:01;;;;;;;1.17;0.65;;;;;;;18.97;100.00;100461.03;10363507;28;20128;-79
2023/08/30 08:41:05;;;;;;;1.02;0.45;;;;;;;18.74;100.00;100460.50;10355376;28;20037;-79
2023/08/30 08:46:11;;;;;;;0.47;0.47;;;;;;;18.79;100.00;100461.31;10357645;28;20046;-78
2023/08/30 08:51:14;;;;;;;2.75;1.77;;;;;;;18.48;100.00;100452.16;10345739;28;20065;-78
2023/08/30 08:56:17;;;;;;;0.40;0.40;;;;;;;18.48;100.00;100446.09;10331572;28;20053;-78
2023/08/30 09:01:19;;;;;;;5.35;1.02;;;;;;;18.16;100.00;100429.13;10356528;28;20261;-79
2023/08/30 09:06:36;;;;;;;0.95;0.65;;;;;;;17.86;100.00;100420.78;10349220;28;20057;-81
2023/08/30 09:11:38;;;;;;;0.28;0.25;;;;;;;18.57;100.00;100427.72;10345583;28;20054;-79
2023/08/30 09:17:01;;;;;;;1.00;0.90;;;;;;;18.22;100.00;100405.59;10350550;28;20042;-79
2023/08/30 09:22:02;;;;;;;1.05;0.63;;;;;;;18.66;100.00;100391.03;10346406;28;20038;-79
2023/08/30 09:27:04;;;;;;;0.75;0.52;;;;;;;18.80;100.00;100395.19;10356221;28;20129;-79
2023/08/30 09:32:07;;;;;;;3.35;1.42;;;;;;;18.41;100.00;100372.28;10355320;28;20056;-79
2023/08/30 09:37:19;;;;;;;0.30;0.30;;;;;;;18.79;100.00;100362.13;10344364;28;20559;-80
2023/08/30 09:42:21;;;;;;;0.95;0.38;;;;;;;18.19;100.00;100361.31;10358493;28;20584;-81
2023/08/30 09:47:27;;;;;;;4.55;0.98;;;;;;;18.62;100.00;100345.00;10365341;28;20049;-80
2023/08/30 09:52:30;;;;;;;0.85;0.63;;;;;;;17.96;100.00;100317.31;10363181;28;20046;-81
2023/08/30 09:57:32;;;;;;;1.90;1.52;;;;;;;18.30;100.00;100317.69;10350449;28;20080;-80
2023/08/30 10:02:34;;;;;;;3.85;0.63;;;;;;;18.09;100.00;100300.63;10337124;28;20108;-83
2023/08/30 10:07:37;;;;;;;1.00;0.75;;;;;;;17.81;100.00;100287.94;10351917;28;20528;-82
2023/08/30 10:12:40;;;;;;;0.93;0.40;;;;;;;18.42;100.00;100310.56;10354813;28;20400;-81
2023/08/30 10:17:53;;;;;;;1.05;0.60;;;;;;;17.98;100.00;100279.06;10358873;28;20056;-83
2023/08/30 10:22:57;;;;;;;0.90;0.75;;;;;;;18.44;100.00;100282.69;10364966;28;20497;-81
2023/08/30 10:27:59;;;;;;;0.32;0.32;;;;;;;17.87;100.00;100267.00;10365903;28;20054;-79
2023/08/30 10:33:02;;;;;;;0.80;0.40;;;;;;;18.38;100.00;100286.28;10348670;28;20073;-80
2023/08/30 10:38:04;;;;;;;1.42;0.75;;;;;;;17.89;100.00;100264.41;10349289;28;20308;-79
2023/08/30 10:43:06;;;;;;;2.10;1.95;;;;;;;18.74;100.00;100275.22;10363846;28;20150;-78
2023/08/30 10:48:08;;;;;;;0.98;0.63;;;;;;;18.26;100.00;100300.38;10349707;28;20421;-78
2023/08/30 10:53:14;;;;;;;1.23;0.80;;;;;;;18.39;100.00;100286.25;10349036;28;20455;-79
2023/08/30 10:58:15;;;;;;;1.13;0.70;;;;;;;18.69;100.00;100281.41;10343059;28;20041;-79
2023/08/30 11:03:17;;;;;;;0.50;0.50;;;;;;;18.76;100.00;100291.72;10361882;28;20049;-78
2023/08/30 11:08:20;;;;;;;0.35;0.20;;;;;;;18.95;100.00;100285.28;10352811;28;20046;-78
2023/08/30 11:13:21;;;;;;;0.75;0.60;;;;;;;18.11;100.00;100269.31;10366811;28;20049;-79
2023/08/30 11:18:23;;;;;;;1.30;0.65;;;;;;;18.91;100.00;100299.28;10346888;28;20050;-78
2023/08/30 11:23:25;;;;;;;0.90;0.80;;;;;;;19.66;100.00;100296.06;10362650;28;20053;-79
2023/08/30 11:28:27;;;;;;;1.00;0.55;;;;;;;20.25;100.00;100293.03;10360640;28;20050;-78
2023/08/30 11:33:28;;;;;;;0.22;0.22;;;;;;;20.87;100.00;100312.47;10360813;28;20053;-78
2023/08/30 11:38:30;;;;;;;1.73;0.85;;;;;;;20.10;100.00;100303.88;10361859;28;20057;-78
2023/08/30 11:43:31;;;;;;;0.60;0.45;;;;;;;20.78;100.00;100302.22;10343329;28;20858;-79
2023/08/30 11:48:33;;;;;;;2.20;0.70;;;;;;;20.61;100.00;100316.56;10351044;28;20042;-79
2023/08/30 11:53:36;;;;;;;0.88;0.57;;;;;;;21.62;100.00;100306.03;10361274;28;20068;-79
2023/08/30 11:58:38;;;;;;;0.47;0.47;;;;;;;20.50;100.00;100331.69;10334608;28;20057;-79
2023/08/30 12:03:40;;;;;;;3.83;1.25;;;;;;;20.79;100.00;100319.66;10352644;28;20088;-78
2023/08/30 12:08:41;;;;;;;0.43;0.43;;;;;;;21.00;100.00;100314.75;10339841;28;20042;-77
2023/08/30 12:13:43;;;;;;;0.57;0.40;;;;;;;21.04;100.00;100314.63;10345667;28;20504;-78
2023/08/30 12:18:45;;;;;;;0.95;0.43;;;;;;;20.97;100.00;100328.78;10361008;28;20460;-78
2023/08/30 12:23:46;;;;;;;1.40;0.70;;;;;;;20.64;100.00;100333.09;10338314;28;20054;-78
2023/08/30 12:28:48;;;;;;;0.30;0.30;;;;;;;20.82;100.00;100343.13;10364997;28;20452;-78
2023/08/30 12:33:49;;;;;;;0.57;0.50;;;;;;;21.79;100.00;100365.84;10354755;28;20279;-78
2023/08/30 12:38:51;;;;;;;1.35;0.60;;;;;;;22.29;100.00;100359.13;10358865;28;20104;-77
2023/08/30 12:43:52;;;;;;;0.38;0.38;;;;;;;23.74;100.00;100371.72;10363657;28;20046;-77
2023/08/30 12:48:54;;;;;;;0.28;0.22;;;;;;;23.88;100.00;100386.97;10364877;28;20065;-79
2023/08/30 12:53:59;;;;;;;0.45;0.43;;;;;;;24.00;100.00;100373.41;10340978;28;20050;-78
2023/08/30 12:59:00;;;;;;;0.30;0.30;;;;;;;24.47;100.00;100375.06;10365867;28;20053;-78
2023/08/30 13:04:03;;;;;;;0.10;0.10;;;;;;;23.84;100.00;100380.13;10373114;28;20494;-78
2023/08/30 13:09:05;;;;;;;0.55;0.43;;;;;;;23.40;100.00;100376.44;10372950;28;20046;-77
2023/08/30 13:14:06;;;;;;;0.10;0.10;;;;;;;22.90;100.00;100392.16;10369769;28;20044;-78
2023/08/30 13:19:08;;;;;;;0.10;0.10;;;;;;;22.21;100.00;100388.19;10363047;28;20042;-78
2023/08/30 13:24:09;;;;;;;0.10;0.10;;;;;;;22.28;100.00;100396.75;10368851;28;20054;-78
2023/08/30 13:29:11;;;;;;;0.03;0.03;;;;;;;22.92;100.00;100379.84;10370635;28;20053;-77
2023/08/30 13:34:12;;;;;;;0.43;0.10;;;;;;;22.89;100.00;100393.94;10367894;28;20065;-77
2023/08/30 13:39:14;;;;;;;0.52;0.35;;;;;;;23.36;100.00;100393.22;10367803;28;20096;-78
2023/08/30 13:44:16;;;;;;;0.52;0.20;;;;;;;23.78;100.00;100391.72;10351117;28;20049;-78
2023/08/30 13:49:18;;;;;;;0.20;0.00;;;;;;;23.40;100.00;100384.34;10368409;28;20064;-77
2023/08/30 13:54:19;;;;;;;0.20;0.10;;;;;;;23.45;100.00;100382.41;10360678;28;20042;-78
2023/08/30 13:59:22;;;;;;;0.80;0.20;;;;;;;23.87;100.00;100379.97;10350932;28;20062;-78
2023/08/30 14:04:25;;;;;;;0.00;0.00;;;;;;;23.50;100.00;100376.97;10341870;28;20046;-78
2023/08/30 14:09:27;;;;;;;0.20;0.20;;;;;;;23.01;100.00;100366.41;10348522;28;20052;-77
2023/08/30 14:14:29;;;;;;;2.53;0.30;;;;;;;24.08;100.00;100371.31;10362260;28;20045;-78
2023/08/30 14:19:33;;;;;;;0.00;0.00;;;;;;;24.26;100.00;100371.50;10359257;28;20119;-78
2023/08/30 14:24:35;;;;;;;0.38;0.20;;;;;;;23.57;100.00;100374.97;10361770;28;20104;-78
2023/08/30 14:29:52;;;;;;;0.25;0.20;;;;;;;22.87;100.00;100387.88;10338282;28;20050;-78
2023/08/30 14:34:53;;;;;;;0.50;0.08;;;;;;;22.66;100.00;100386.84;10360193;28;20045;-78
2023/08/30 14:39:55;;;;;;;0.00;0.00;;;;;;;22.93;100.00;100390.31;10369541;28;20100;-78
2023/08/30 14:44:57;;;;;;;0.03;0.03;;;;;;;22.73;100.00;100388.34;10355862;28;20587;-78
2023/08/30 14:49:59;;;;;;;0.15;0.15;;;;;;;22.58;100.00;100391.47;10345449;28;20050;-78
2023/08/30 14:55:00;;;;;;;0.00;0.00;;;;;;;22.50;100.00;100389.94;10364983;28;20050;-78
2023/08/30 15:00:03;;;;;;;0.75;0.47;;;;;;;23.71;100.00;100391.13;10364234;28;20125;-78
2023/08/30 15:05:04;;;;;;;0.00;0.00;;;;;;;24.02;100.00;100384.69;10351894;28;20045;-79
2023/08/30 15:10:06;;;;;;;0.00;0.00;;;;;;;23.85;100.00;100392.38;10337891;28;20054;-78
2023/08/30 15:15:08;;;;;;;0.20;0.20;;;;;;;23.88;100.00;100384.34;10359344;28;20053;-80
2023/08/30 15:20:10;;;;;;;0.10;0.10;;;;;;;23.77;100.00;100379.47;10334926;28;20505;-79
2023/08/30 15:25:12;;;;;;;0.57;0.17;;;;;;;23.88;100.00;100392.22;10330426;28;20042;-80
2023/08/30 15:30:14;;;;;;;0.13;0.10;;;;;;;23.00;100.00;100409.34;10340004;28;20050;-79
2023/08/30 15:35:15;;;;;;;1.23;0.20;;;;;;;22.76;100.00;100403.97;10332986;28;20104;-79
2023/08/30 15:40:17;;;;;;;0.38;0.15;;;;;;;22.74;100.00;100413.69;10362268;28;20112;-78
2023/08/30 15:45:18;;;;;;;0.10;0.10;;;;;;;23.04;100.00;100410.09;10362042;28;20579;-78
2023/08/30 15:50:20;;;;;;;0.10;0.10;;;;;;;23.54;100.00;100414.53;10356488;28;20041;-78
2023/08/30 15:55:22;;;;;;;0.20;0.20;;;;;;;22.94;100.00;100422.69;10335241;28;20061;-78
2023/08/30 16:00:23;;;;;;;0.00;0.00;;;;;;;22.81;100.00;100438.84;10357269;28;20058;-79
2023/08/30 16:05:25;;;;;;;0.00;0.00;;;;;;;21.74;100.00;100451.63;10347252;28;20038;-79
2023/08/30 16:10:26;;;;;;;0.00;0.00;;;;;;;22.15;100.00;100457.44;10353778;28;20464;-80
2023/08/30 16:15:28;;;;;;;0.00;0.00;;;;;;;21.77;100.00;100462.06;10358767;28;20500;-77
2023/08/30 16:20:30;;;;;;;1.35;0.40;;;;;;;21.17;100.00;100466.22;10346905;28;20493;-80
2023/08/30 16:25:32;;;;;;;0.10;0.10;;;;;;;21.50;100.00;100476.72;10346502;28;20500;-80
2023/08/30 16:30:34;;;;;;;0.30;0.17;;;;;;;21.39;100.00;100480.47;10345143;28;20108;-78
2023/08/30 16:35:35;;;;;;;0.60;0.32;;;;;;;20.84;100.00;100485.31;10369162;28;20050;-79
2023/08/30 16:40:37;;;;;;;0.00;0.00;;;;;;;21.09;100.00;100495.22;10362381;28;20053;-78
2023/08/30 16:45:41;;;;;;;0.00;0.00;;;;;;;21.08;100.00;100494.34;10367547;28;20034;-78
2023/08/30 16:50:42;;;;;;;0.00;0.00;;;;;;;20.84;100.00;100495.81;10363177;28;20491;-79
2023/08/30 16:55:44;;;;;;;0.00;0.00;;;;;;;21.49;100.00;100509.94;10362581;28;20038;-79
2023/08/30 17:00:45;;;;;;;0.32;0.17;;;;;;;20.72;100.00;100506.53;10372452;28;20065;-78
2023/08/30 17:05:47;;;;;;;0.00;0.00;;;;;;;20.47;100.00;100511.44;10369467;28;20045;-78
2023/08/30 17:10:48;;;;;;;0.00;0.00;;;;;;;20.45;100.00;100514.97;10349449;28;20062;-77
2023/08/30 17:15:50;;;;;;;0.00;0.00;;;;;;;20.81;100.00;100516.84;10363192;28;20057;-77
2023/08/30 17:20:52;;;;;;;0.00;0.00;;;;;;;20.96;100.00;100514.75;10323391;28;20061;-79
2023/08/30 17:25:53;;;;;;;0.00;0.00;;;;;;;21.13;100.00;100512.56;10345176;28;20559;-78
2023/08/30 17:30:56;;;;;;;0.00;0.00;;;;;;;20.94;100.00;100517.38;10369581;28;20046;-79
2023/08/30 17:35:58;;;;;;;0.00;0.00;;;;;;;20.51;100.00;100521.81;10345561;28;20128;-78
2023/08/30 17:40:59;;;;;;;0.00;0.00;;;;;;;20.91;100.00;100520.09;10337034;28;20049;-79
2023/08/30 17:46:01;;;;;;;0.10;0.10;;;;;;;20.94;100.00;100524.41;10364820;28;20042;-77
2023/08/30 17:51:03;;;;;;;0.00;0.00;;;;;;;20.63;100.00;100527.66;10347795;28;20509;-78
2023/08/30 17:56:07;;;;;;;0.10;0.10;;;;;;;20.33;100.00;100524.81;10359312;28;20045;-76
2023/08/30 18:01:09;;;;;;;0.00;0.00;;;;;;;20.34;100.00;100540.47;10353824;28;20042;-77
2023/08/30 18:06:14;;;;;;;0.45;0.20;;;;;;;20.24;100.00;100542.41;10337606;28;20050;-76
2023/08/30 18:11:19;;;;;;;0.47;0.00;;;;;;;20.04;100.00;100540.19;10319693;28;20053;-76
2023/08/30 18:16:21;;;;;;;0.00;0.00;;;;;;;19.85;100.00;100534.44;10359166;28;20058;-77
2023/08/30 18:21:22;;;;;;;0.10;0.10;;;;;;;19.71;100.00;100549.47;10354097;28;20120;-76
2023/08/30 18:26:24;;;;;;;0.00;0.00;;;;;;;19.73;100.00;100550.31;10344428;28;20512;-77
2023/08/30 18:31:25;;;;;;;0.00;0.00;;;;;;;19.51;100.00;100550.69;10354714;28;20050;-76
2023/08/30 18:36:28;;;;;;;0.00;0.00;;;;;;;19.35;100.00;100565.78;10355831;28;20057;-77
2023/08/30 18:41:29;;;;;;;0.10;0.00;;;;;;;19.24;100.00;100568.56;10344945;28;20049;-77
2023/08/30 18:46:31;;;;;;;0.00;0.00;;;;;;;19.17;100.00;100572.16;10338709;28;20505;-77
2023/08/30 18:51:34;;;;;;;0.00;0.00;;;;;;;19.33;100.00;100572.75;10341196;28;20472;-75
2023/08/30 18:56:36;;;;;;;0.00;0.00;;;;;;;19.40;100.00;100582.22;10361097;28;20080;-76
2023/08/30 19:01:38;;;;;;;0.00;0.00;;;;;;;19.26;100.00;100574.59;10359211;28;20132;-76
2023/08/30 19:06:40;;;;;;;0.00;0.00;;;;;;;19.14;100.00;100577.41;10353802;28;20109;-77
2023/08/30 19:11:41;;;;;;;0.20;0.10;;;;;;;18.70;100.00;100593.63;10347430;28;20045;-75
2023/08/30 19:16:43;;;;;;;0.00;0.00;;;;;;;18.59;100.00;100595.50;10353210;28;20125;-75
2023/08/30 19:21:44;;;;;;;0.00;0.00;;;;;;;18.94;100.00;100596.84;10353662;28;20042;-76
2023/08/30 19:26:46;;;;;;;0.10;0.00;;;;;;;18.91;100.00;100601.19;10356906;28;20046;-77
2023/08/30 19:31:48;;;;;;;0.17;0.10;;;;;;;19.21;100.00;100615.59;10357397;28;20408;-78
2023/08/30 19:36:49;;;;;;;0.00;0.00;;;;;;;18.82;100.00;100618.72;10346921;28;20108;-77
2023/08/30 19:41:51;;;;;;;0.00;0.00;;;;;;;18.46;100.00;100626.09;10334987;28;20052;-76
2023/08/30 19:46:52;;;;;;;0.00;0.00;;;;;;;18.39;100.00;100630.50;10350218;28;20093;-75
2023/08/30 19:51:54;;;;;;;0.17;0.17;;;;;;;18.26;100.00;100634.13;10339962;28;20511;-75
2023/08/30 19:56:55;;;;;;;0.00;0.00;;;;;;;18.21;100.00;100631.56;10343563;28;20046;-75
2023/08/30 20:01:59;;;;;;;0.00;0.00;;;;;;;18.28;100.00;100637.56;10323067;28;20073;-75
2023/08/30 20:07:00;;;;;;;0.00;0.00;;;;;;;17.58;100.00;100619.06;10339309;28;20122;-76
2023/08/30 20:12:03;;;;;;;0.30;0.08;;;;;;;17.40;100.00;100620.06;10359908;28;20042;-75
2023/08/30 20:17:08;;;;;;;0.10;0.10;;;;;;;17.39;100.00;100623.53;10323616;28;20047;-76
2023/08/30 20:22:11;;;;;;;0.00;0.00;;;;;;;17.60;100.00;100625.13;10321386;28;20038;-76
2023/08/30 20:27:13;;;;;;;0.10;0.10;;;;;;;17.92;100.00;100629.19;10339365;28;20611;-75
2023/08/30 20:32:14;;;;;;;0.00;0.00;;;;;;;17.17;100.00;100617.59;10324908;28;20041;-78
2023/08/30 20:37:16;;;;;;;0.70;0.35;;;;;;;16.67;100.00;100614.34;10337353;28;20445;-78
2023/08/30 20:42:18;;;;;;;0.10;0.10;;;;;;;17.02;100.00;100619.41;10342388;28;20108;-78
2023/08/30 20:47:21;;;;;;;0.00;0.00;;;;;;;16.83;100.00;100613.41;10352885;28;20045;-79
2023/08/30 20:52:23;;;;;;;0.20;0.10;;;;;;;17.66;100.00;100643.31;10355059;28;20068;-77
2023/08/30 20:57:25;;;;;;;0.08;0.08;;;;;;;18.11;100.00;100655.13;10364054;28;20042;-79
2023/08/30 21:02:32;;;;;;;0.00;0.00;;;;;;;18.27;100.00;100654.13;10353125;28;20038;-79
2023/08/30 21:07:34;;;;;;;0.00;0.00;;;;;;;18.10;100.00;100653.41;10346926;28;20088;-79
2023/08/30 21:12:37;;;;;;;0.00;0.00;;;;;;;17.62;100.00;100652.00;10346210;28;20045;-77
2023/08/30 21:17:40;;;;;;;0.28;0.28;;;;;;;17.24;100.00;100650.53;10363269;28;20903;-78
2023/08/30 21:22:42;;;;;;;0.17;0.10;;;;;;;17.15;100.00;100653.19;10355402;28;20049;-79
2023/08/30 21:27:43;;;;;;;0.00;0.00;;;;;;;17.51;100.00;100664.25;10352600;28;20100;-77
2023/08/30 21:32:50;;;;;;;0.00;0.00;;;;;;;17.54;100.00;100669.44;10339152;28;20041;-78
2023/08/30 21:37:52;;;;;;;0.10;0.00;;;;;;;17.16;100.00;100657.53;10336362;28;20052;-80
2023/08/30 21:42:53;;;;;;;0.35;0.10;;;;;;;17.09;100.00;100657.53;10339632;28;20050;-78
2023/08/30 21:47:55;;;;;;;0.10;0.10;;;;;;;17.44;100.00;100669.53;10355270;28;20046;-77
2023/08/30 21:52:57;;;;;;;0.00;0.00;;;;;;;17.42;100.00;100666.06;10363038;28;20034;-78
2023/08/30 21:57:59;;;;;;;0.95;0.57;;;;;;;17.16;100.00;100662.75;10366469;28;20061;-79
2023/08/30 22:03:01;;;;;;;0.20;0.20;;;;;;;16.95;100.00;100659.34;10354101;28;20057;-77
2023/08/30 22:08:04;;;;;;;0.15;0.15;;;;;;;17.52;100.00;100666.84;10353332;28;20042;-77
2023/08/30 22:13:05;;;;;;;0.00;0.00;;;;;;;18.22;100.00;100674.13;10354241;28;20045;-77
2023/08/30 22:18:07;;;;;;;0.00;0.00;;;;;;;17.15;100.00;100658.41;10362325;28;20046;-79
2023/08/30 22:23:08;;;;;;;1.67;0.65;;;;;;;17.66;100.00;100664.16;10357748;28;20049;-80
2023/08/30 22:28:11;;;;;;;0.20;0.10;;;;;;;17.82;100.00;100671.88;10354113;28;20085;-78
2023/08/30 22:33:13;;;;;;;0.82;0.38;;;;;;;17.53;100.00;100662.53;10344949;28;20041;-78
2023/08/30 22:38:15;;;;;;;0.05;0.00;;;;;;;17.85;100.00;100664.00;10348842;28;20042;-78
2023/08/30 22:43:16;;;;;;;0.10;0.10;;;;;;;17.90;100.00;100667.47;10360717;28;20556;-77
2023/08/30 22:48:18;;;;;;;0.20;0.20;;;;;;;18.13;100.00;100664.66;10354934;28;20050;-77
2023/08/30 22:53:20;;;;;;;0.75;0.10;;;;;;;18.17;100.00;100666.34;10366453;28;20048;-81